createdAt,value
2023-05-06T00:01:00.983Z,15.88
2023-05-06T00:03:28.317Z,16.00
2023-05-06T00:05:55.508Z,15.45
2023-05-06T00:08:22.014Z,17.35
2023-05-06T00:10:48.675Z,16.27
2023-05-06T00:13:16.170Z,15.90
2023-05-06T00:15:42.797Z,17.85
2023-05-06T00:18:09.599Z,16.60
2023-05-06T00:20:36.339Z,16.42
2023-05-06T00:23:02.834Z,17.40
2023-05-06T00:25:29.362Z,16.80
2023-05-06T00:27:55.847Z,15.43
2023-05-06T00:30:22.838Z,15.93
2023-05-06T00:32:49.384Z,16.35
2023-05-06T00:35:16.082Z,16.92
2023-05-06T00:37:46.670Z,17.27
2023-05-06T00:40:14.277Z,17.13
2023-05-06T00:42:40.827Z,19.48
2023-05-06T00:45:08.052Z,18.65
2023-05-06T00:47:35.972Z,19.42
2023-05-06T00:50:03.031Z,19.88
2023-05-06T00:52:29.585Z,20.88
2023-05-06T00:54:56.493Z,17.05
2023-05-06T00:57:23.486Z,17.40
2023-05-06T00:59:50.025Z,18.30
2023-05-06T01:02:16.647Z,16.70
2023-05-06T01:04:43.420Z,18.90
2023-05-06T01:07:34.282Z,17.98
2023-05-06T01:10:11.193Z,18.15
2023-05-06T01:12:46.564Z,18.08
2023-05-06T01:15:13.094Z,16.42
2023-05-06T01:17:44.067Z,16.23
2023-05-06T01:20:12.149Z,15.75
2023-05-06T01:22:39.328Z,15.55
2023-05-06T01:25:06.510Z,17.13
2023-05-06T01:27:33.222Z,16.23
2023-05-06T01:30:00.695Z,16.85
2023-05-06T01:32:33.174Z,16.13
2023-05-06T01:35:05.648Z,17.95
2023-05-06T01:37:34.330Z,16.20
2023-05-06T01:40:00.991Z,15.73
2023-05-06T01:42:27.893Z,17.00
2023-05-06T01:44:55.740Z,16.45
2023-05-06T01:47:22.518Z,16.80
2023-05-06T01:49:49.078Z,17.80
2023-05-06T01:52:16.149Z,16.52
2023-05-06T01:54:42.764Z,17.40
2023-05-06T01:57:09.292Z,17.58
2023-05-06T01:59:35.886Z,16.42
2023-05-06T02:02:02.414Z,15.63
2023-05-06T02:04:29.145Z,16.73
2023-05-06T02:06:55.635Z,18.38
2023-05-06T02:09:22.219Z,19.85
2023-05-06T02:11:48.691Z,17.42
2023-05-06T02:14:15.178Z,16.75
2023-05-06T02:16:41.737Z,17.50
2023-05-06T02:19:08.287Z,17.35
2023-05-06T02:21:34.938Z,17.45
2023-05-06T02:24:01.430Z,17.10
2023-05-06T02:26:27.928Z,16.75
2023-05-06T02:28:54.424Z,16.40
2023-05-06T02:31:21.137Z,16.48
2023-05-06T02:33:47.699Z,17.85
2023-05-06T02:36:14.215Z,17.00
2023-05-06T02:38:40.894Z,16.67
2023-05-06T02:41:07.491Z,18.45
2023-05-06T02:43:33.986Z,17.15
2023-05-06T02:46:00.569Z,17.27
2023-05-06T02:48:27.205Z,16.48
2023-05-06T02:50:53.762Z,17.05
2023-05-06T02:53:20.253Z,16.92
2023-05-06T02:55:46.889Z,16.58
2023-05-06T02:58:13.414Z,15.75
2023-05-06T03:00:39.989Z,16.35
2023-05-06T03:03:06.655Z,16.65
2023-05-06T03:05:33.241Z,16.85
2023-05-06T03:07:59.760Z,17.52
2023-05-06T03:10:26.290Z,15.95
2023-05-06T03:12:52.920Z,15.35
2023-05-06T03:15:19.519Z,16.52
2023-05-06T03:17:47.480Z,16.77
2023-05-06T03:20:14.027Z,15.98
2023-05-06T03:22:42.295Z,15.18
2023-05-06T03:27:36.140Z,15.98
2023-05-06T03:30:02.996Z,16.38
2023-05-06T03:32:29.587Z,16.83
2023-05-06T03:34:56.231Z,19.27
2023-05-06T03:37:22.753Z,16.55
2023-05-06T03:39:49.288Z,16.92
2023-05-06T03:42:16.197Z,16.80
2023-05-06T03:44:42.708Z,17.55
2023-05-06T03:47:09.239Z,16.65
2023-05-06T03:49:35.736Z,17.35
2023-05-06T03:52:02.320Z,17.90
2023-05-06T03:54:28.940Z,19.50
2023-05-06T03:56:55.565Z,17.60
2023-05-06T03:59:22.078Z,17.48
2023-05-06T04:01:48.634Z,17.23
2023-05-06T04:04:15.144Z,17.55
2023-05-06T04:06:41.670Z,17.08
2023-05-06T04:09:08.203Z,18.05
2023-05-06T04:11:35.552Z,16.95
2023-05-06T04:14:02.555Z,18.05
2023-05-06T04:16:29.264Z,20.30
2023-05-06T04:18:55.864Z,17.02
2023-05-06T04:21:22.363Z,16.77
2023-05-06T04:23:49.064Z,18.67
2023-05-06T04:26:15.606Z,17.48
2023-05-06T04:28:42.111Z,17.63
2023-05-06T04:31:08.883Z,17.38
2023-05-06T04:33:35.796Z,18.35
2023-05-06T04:36:03.530Z,18.30
2023-05-06T04:38:32.177Z,17.10
2023-05-06T04:40:59.466Z,18.08
2023-05-06T04:43:29.681Z,17.25
2023-05-06T04:45:56.228Z,17.40
2023-05-06T04:48:22.939Z,17.70
2023-05-06T04:50:50.648Z,17.13
2023-05-06T04:53:17.370Z,17.23
2023-05-06T04:55:43.939Z,17.42
2023-05-06T04:58:10.508Z,19.17
2023-05-06T05:00:37.076Z,18.67
2023-05-06T05:03:03.863Z,17.48
2023-05-06T05:05:32.009Z,18.05
2023-05-06T05:07:58.525Z,17.70
2023-05-06T05:10:25.058Z,17.02
2023-05-06T05:12:51.662Z,17.08
2023-05-06T05:15:18.400Z,19.50
2023-05-06T05:17:45.108Z,19.20
2023-05-06T05:20:12.062Z,17.77
2023-05-06T05:22:38.655Z,17.55
2023-05-06T05:25:07.066Z,18.73
2023-05-06T05:27:34.674Z,19.08
2023-05-06T05:30:01.201Z,18.27
2023-05-06T05:32:27.767Z,19.05
2023-05-06T05:34:54.483Z,19.23
2023-05-06T05:37:21.133Z,19.83
2023-05-06T05:39:47.777Z,17.83
2023-05-06T05:42:14.317Z,18.27
2023-05-06T05:44:41.032Z,19.98
2023-05-06T05:47:07.644Z,18.40
2023-05-06T05:49:34.221Z,19.23
2023-05-06T05:52:00.761Z,19.05
2023-05-06T05:54:27.281Z,18.98
2023-05-06T05:56:53.803Z,20.63
2023-05-06T05:59:20.379Z,20.50
2023-05-06T06:01:46.907Z,19.73
2023-05-06T06:04:13.556Z,22.60
2023-05-06T06:06:40.298Z,22.27
2023-05-06T06:09:07.296Z,21.23
2023-05-06T06:11:33.917Z,22.35
2023-05-06T06:14:00.999Z,21.73
2023-05-06T06:16:28.184Z,20.83
2023-05-06T06:18:54.764Z,22.73
2023-05-06T06:21:21.387Z,20.40
2023-05-06T06:23:47.918Z,20.92
2023-05-06T06:26:14.431Z,20.88
2023-05-06T06:28:41.916Z,21.83
2023-05-06T06:31:08.485Z,21.63
2023-05-06T06:33:34.973Z,22.42
2023-05-06T06:36:02.113Z,24.88
2023-05-06T06:38:28.728Z,22.92
2023-05-06T06:40:55.515Z,22.45
2023-05-06T06:43:23.762Z,25.00
2023-05-06T06:45:50.645Z,23.10
2023-05-06T06:48:17.230Z,22.63
2023-05-06T06:50:43.759Z,22.65
2023-05-06T06:53:11.032Z,22.05
2023-05-06T06:55:37.694Z,21.38
2023-05-06T06:58:04.178Z,21.17
2023-05-06T07:00:30.782Z,21.42
2023-05-06T07:02:57.381Z,19.58
2023-05-06T07:05:23.942Z,20.45
2023-05-06T07:07:50.517Z,18.92
2023-05-06T07:10:17.024Z,19.17
2023-05-06T07:12:43.539Z,18.15
2023-05-06T07:15:10.653Z,17.88
2023-05-06T07:17:37.331Z,18.20
2023-05-06T07:20:04.174Z,17.88
2023-05-06T07:22:30.757Z,18.30
2023-05-06T07:24:57.295Z,17.35
2023-05-06T07:27:24.218Z,17.70
2023-05-06T07:29:50.900Z,16.33
2023-05-06T07:32:17.858Z,16.55
2023-05-06T07:34:44.379Z,16.63
2023-05-06T07:37:10.945Z,15.95
2023-05-06T07:39:37.437Z,16.67
2023-05-06T07:42:04.070Z,14.18
2023-05-06T07:44:30.586Z,14.55
2023-05-06T07:46:57.266Z,14.98
2023-05-06T07:49:24.190Z,16.30
2023-05-06T07:51:51.108Z,14.82
2023-05-06T07:54:17.604Z,14.82
2023-05-06T07:56:44.167Z,15.75
2023-05-06T07:59:11.771Z,15.65
2023-05-06T08:01:38.372Z,14.68
2023-05-06T08:04:05.012Z,14.48
2023-05-06T08:06:32.321Z,14.20
2023-05-06T08:08:59.076Z,14.35
2023-05-06T08:11:25.701Z,15.00
2023-05-06T08:13:52.215Z,16.23
2023-05-06T08:16:18.808Z,13.45
2023-05-06T08:18:45.406Z,13.57
2023-05-06T08:21:11.940Z,12.65
2023-05-06T08:23:38.498Z,11.75
2023-05-06T08:26:05.129Z,9.02
2023-05-06T08:28:31.652Z,11.20
2023-05-06T08:30:58.145Z,11.82
2023-05-06T08:33:24.684Z,12.07
2023-05-06T08:35:51.204Z,10.90
2023-05-06T08:38:17.827Z,11.10
2023-05-06T08:40:45.014Z,10.23
2023-05-06T08:43:16.140Z,11.70
2023-05-06T08:45:42.850Z,11.52
2023-05-06T08:48:09.672Z,11.80
2023-05-06T08:50:41.986Z,11.30
2023-05-06T08:53:13.509Z,10.38
2023-05-06T08:55:41.852Z,10.35
2023-05-06T08:58:08.854Z,8.75
2023-05-06T09:00:35.776Z,9.48
2023-05-06T09:03:02.424Z,9.00
2023-05-06T09:05:29.055Z,7.60
2023-05-06T09:07:55.816Z,8.85
2023-05-06T09:10:22.371Z,10.10
2023-05-06T09:12:49.011Z,8.40
2023-05-06T09:15:16.373Z,9.23
2023-05-06T09:17:42.997Z,9.88
2023-05-06T09:20:12.379Z,9.57
2023-05-06T09:22:40.553Z,10.10
2023-05-06T09:25:07.846Z,9.77
2023-05-06T09:27:36.660Z,9.43
2023-05-06T09:30:12.568Z,11.00
2023-05-06T09:32:40.240Z,9.65
2023-05-06T09:35:08.558Z,9.82
2023-05-06T09:37:35.425Z,10.18
2023-05-06T09:40:02.008Z,9.77
2023-05-06T09:42:30.110Z,8.98
2023-05-06T09:45:01.064Z,8.57
2023-05-06T09:47:34.248Z,9.65
2023-05-06T09:50:01.910Z,8.75
2023-05-06T09:52:29.268Z,7.95
2023-05-06T09:54:56.077Z,7.75
2023-05-06T09:57:22.955Z,7.30
2023-05-06T09:59:52.056Z,7.03
2023-05-06T10:02:19.736Z,6.38
2023-05-06T10:09:41.199Z,6.75
2023-05-06T10:12:08.981Z,7.43
2023-05-06T10:17:12.363Z,6.13
2023-05-06T10:19:46.545Z,6.43
2023-05-06T10:24:52.430Z,6.63
2023-05-06T10:27:23.577Z,6.80
2023-05-06T10:29:52.652Z,5.90
2023-05-06T10:32:20.988Z,7.05
2023-05-06T10:34:54.543Z,6.43
2023-05-06T10:37:26.356Z,6.65
2023-05-06T10:39:54.684Z,6.18
2023-05-06T10:42:26.808Z,5.80
2023-05-06T10:45:04.112Z,7.47
2023-05-06T10:47:55.981Z,5.82
2023-05-06T10:50:23.233Z,4.60
2023-05-06T10:52:59.292Z,5.50
2023-05-06T10:55:32.652Z,4.80
2023-05-06T10:58:05.813Z,7.18
2023-05-06T11:00:33.727Z,7.57
2023-05-06T11:03:09.918Z,8.25
2023-05-06T11:05:52.159Z,6.68
2023-05-06T11:08:24.018Z,7.00
2023-05-06T11:10:51.130Z,7.07
2023-05-06T11:13:28.686Z,6.93
2023-05-06T11:15:56.384Z,5.90
2023-05-06T11:18:29.451Z,4.85
2023-05-06T11:21:04.925Z,4.85
2023-05-06T11:23:46.953Z,5.03
2023-05-06T11:26:14.204Z,6.07
2023-05-06T11:28:43.685Z,5.75
2023-05-06T11:31:10.464Z,6.55
2023-05-06T11:33:37.457Z,7.15
2023-05-06T11:36:04.933Z,6.88
2023-05-06T11:38:41.832Z,6.90
2023-05-06T11:41:08.377Z,6.93
2023-05-06T11:43:34.885Z,6.03
2023-05-06T11:46:01.652Z,6.20
2023-05-06T11:48:28.158Z,6.03
2023-05-06T11:50:55.703Z,5.72
2023-05-06T11:53:24.245Z,6.20
2023-05-06T11:55:54.191Z,6.47
2023-05-06T11:58:25.144Z,6.10
2023-05-06T12:01:01.883Z,7.28
2023-05-06T12:03:30.315Z,6.28
2023-05-06T12:05:57.788Z,7.53
2023-05-06T12:08:28.264Z,6.38
2023-05-06T12:11:03.588Z,7.45
2023-05-06T12:13:30.425Z,6.40
2023-05-06T12:15:59.268Z,7.05
2023-05-06T12:18:26.270Z,6.38
2023-05-06T12:20:56.709Z,7.05
2023-05-06T12:23:23.345Z,5.13
2023-05-06T12:26:06.641Z,4.72
2023-05-06T12:28:35.976Z,5.05
2023-05-06T12:31:21.930Z,4.45
2023-05-06T12:33:49.918Z,5.82
2023-05-06T12:38:57.201Z,5.28
2023-05-06T12:41:25.781Z,5.25
2023-05-06T12:43:52.951Z,6.30
2023-05-06T12:46:19.659Z,6.15
2023-05-06T12:48:59.608Z,5.78
2023-05-06T12:51:27.229Z,5.43
2023-05-06T12:53:54.216Z,7.20
2023-05-06T12:56:24.241Z,7.40
2023-05-06T12:58:58.688Z,6.32
2023-05-06T13:01:25.179Z,7.55
2023-05-06T13:03:52.712Z,7.70
2023-05-06T13:06:19.281Z,6.97
2023-05-06T13:08:45.837Z,8.75
2023-05-06T13:11:12.483Z,6.45
2023-05-06T13:13:39.089Z,7.55
2023-05-06T13:16:06.190Z,9.10
2023-05-06T13:18:32.899Z,9.23
2023-05-06T13:21:00.316Z,7.70
2023-05-06T13:23:26.846Z,8.65
2023-05-06T13:26:03.565Z,7.07
2023-05-06T13:28:32.446Z,6.75
2023-05-06T13:30:59.113Z,7.90
2023-05-06T13:33:25.809Z,8.63
2023-05-06T13:35:52.433Z,10.10
2023-05-06T13:38:18.960Z,8.90
2023-05-06T13:40:48.167Z,8.82
2023-05-06T13:43:15.683Z,8.65
2023-05-06T13:45:43.741Z,8.80
2023-05-06T13:48:10.467Z,8.10
2023-05-06T13:50:37.262Z,7.75
2023-05-06T13:53:04.420Z,9.85
2023-05-06T13:55:30.939Z,10.05
2023-05-06T13:57:57.539Z,7.57
2023-05-06T14:00:24.069Z,8.35
2023-05-06T14:02:50.632Z,7.20
2023-05-06T14:05:17.292Z,7.70
2023-05-06T14:07:43.962Z,8.52
2023-05-06T14:10:11.722Z,7.50
2023-05-06T14:12:38.436Z,6.72
2023-05-06T14:15:09.655Z,6.03
2023-05-06T14:17:36.607Z,5.78
2023-05-06T14:20:05.168Z,4.53
2023-05-06T14:22:32.912Z,4.55
2023-05-06T14:24:59.502Z,4.88
2023-05-06T14:27:26.372Z,4.47
2023-05-06T14:29:52.987Z,4.50
2023-05-06T14:32:19.526Z,4.68
2023-05-06T14:34:46.080Z,4.97
2023-05-06T14:37:12.612Z,4.72
2023-05-06T14:39:39.122Z,4.53
2023-05-06T14:42:05.752Z,4.85
2023-05-06T14:44:32.479Z,4.13
2023-05-06T14:46:59.015Z,3.72
2023-05-06T14:49:25.524Z,3.22
2023-05-06T14:51:52.032Z,2.85
2023-05-06T14:54:18.507Z,2.78
2023-05-06T14:56:49.469Z,2.63
2023-05-06T14:59:18.258Z,2.78
2023-05-06T15:01:44.869Z,3.22
2023-05-06T15:04:11.473Z,3.25
2023-05-06T15:06:38.127Z,3.13
2023-05-06T15:09:04.928Z,3.40
2023-05-06T15:11:32.070Z,3.22
2023-05-06T15:13:58.574Z,3.40
2023-05-06T15:16:25.194Z,3.10
2023-05-06T15:18:51.745Z,3.35
2023-05-06T15:21:18.255Z,3.80
2023-05-06T15:23:46.997Z,4.15
2023-05-06T15:26:13.731Z,4.00
2023-05-06T15:28:40.293Z,3.55
2023-05-06T15:31:06.776Z,4.07
2023-05-06T15:33:36.018Z,4.10
2023-05-06T15:36:02.550Z,4.35
2023-05-06T15:38:29.126Z,4.38
2023-05-06T15:40:55.694Z,5.40
2023-05-06T15:43:24.273Z,3.60
2023-05-06T15:45:51.372Z,3.80
2023-05-06T15:48:17.925Z,3.92
2023-05-06T15:50:44.580Z,4.78
2023-05-06T15:53:11.538Z,6.07
2023-05-06T15:55:45.485Z,5.53
2023-05-06T15:58:13.459Z,5.13
2023-05-06T16:00:40.106Z,5.25
2023-05-06T16:03:09.736Z,5.45
2023-05-06T16:05:38.295Z,5.72
2023-05-06T16:08:04.987Z,6.20
2023-05-06T16:10:31.471Z,6.47
2023-05-06T16:12:58.084Z,7.70
2023-05-06T16:15:24.607Z,6.63
2023-05-06T16:17:51.202Z,6.43
2023-05-06T16:20:17.778Z,6.47
2023-05-06T16:22:50.407Z,5.93
2023-05-06T16:25:17.092Z,6.22
2023-05-06T16:27:43.630Z,5.47
2023-05-06T16:30:10.924Z,4.50
2023-05-06T16:32:37.668Z,3.65
2023-05-06T16:35:04.390Z,3.75
2023-05-06T16:37:31.154Z,3.75
2023-05-06T16:39:57.705Z,4.25
2023-05-06T16:42:24.328Z,3.65
2023-05-06T16:44:51.606Z,4.18
2023-05-06T16:47:23.361Z,4.60
2023-05-06T16:49:50.713Z,5.72
2023-05-06T16:52:17.960Z,5.30
2023-05-06T16:54:44.524Z,5.00
2023-05-06T16:57:11.131Z,5.10
2023-05-06T16:59:37.815Z,5.63
2023-05-06T17:02:04.342Z,5.13
2023-05-06T17:04:30.969Z,5.45
2023-05-06T17:06:57.662Z,5.30
2023-05-06T17:09:24.177Z,5.78
2023-05-06T17:11:50.767Z,4.85
2023-05-06T17:14:17.280Z,5.45
2023-05-06T17:16:44.038Z,5.60
2023-05-06T17:19:11.907Z,6.03
2023-05-06T17:21:38.420Z,6.32
2023-05-06T17:24:05.462Z,6.45
2023-05-06T17:26:32.792Z,7.10
2023-05-06T17:29:00.060Z,6.47
2023-05-06T17:31:26.994Z,6.85
2023-05-06T17:33:53.609Z,6.57
2023-05-06T17:36:22.982Z,6.93
2023-05-06T17:38:52.998Z,7.38
2023-05-06T17:41:19.617Z,8.40
2023-05-06T17:43:47.502Z,8.10
2023-05-06T17:46:14.088Z,8.75
2023-05-06T17:48:40.616Z,9.95
2023-05-06T17:51:07.203Z,11.95
2023-05-06T17:53:34.171Z,11.55
2023-05-06T17:56:00.730Z,11.60
2023-05-06T17:58:27.309Z,13.45
2023-05-06T18:00:53.929Z,12.15
2023-05-06T18:03:20.679Z,12.73
2023-05-06T18:05:47.329Z,12.45
2023-05-06T18:08:13.840Z,12.32
2023-05-06T18:10:41.480Z,12.68
2023-05-06T18:13:08.299Z,12.30
2023-05-06T18:15:34.882Z,11.63
2023-05-06T18:18:01.466Z,11.68
2023-05-06T18:20:28.397Z,12.68
2023-05-06T18:22:54.952Z,11.93
2023-05-06T18:25:21.707Z,13.68
2023-05-06T18:27:48.276Z,12.88
2023-05-06T18:30:15.908Z,15.32
2023-05-06T18:32:42.499Z,13.07
2023-05-06T18:35:10.886Z,14.05
2023-05-06T18:37:37.704Z,13.15
2023-05-06T18:40:05.898Z,12.75
2023-05-06T18:42:33.330Z,12.93
2023-05-06T18:45:01.510Z,12.68
2023-05-06T18:47:28.013Z,11.77
2023-05-06T18:49:54.785Z,12.13
2023-05-06T18:52:21.923Z,11.93
2023-05-06T18:54:48.402Z,11.88
2023-05-06T18:57:15.078Z,11.55
2023-05-06T18:59:41.817Z,9.48
2023-05-06T19:02:08.512Z,8.18
2023-05-06T19:04:35.171Z,7.25
2023-05-06T19:07:01.844Z,6.75
2023-05-06T19:09:28.382Z,7.30
2023-05-06T19:11:55.781Z,8.05
2023-05-06T19:14:23.649Z,6.75
2023-05-06T19:16:52.111Z,7.82
2023-05-06T19:19:18.624Z,8.27
2023-05-06T19:21:45.121Z,8.10
2023-05-06T19:24:11.795Z,8.75
2023-05-06T19:26:39.139Z,8.88
2023-05-06T19:29:05.733Z,8.65
2023-05-06T19:31:32.679Z,8.40
2023-05-06T19:33:59.274Z,8.57
2023-05-06T19:36:25.788Z,8.05
2023-05-06T19:38:52.279Z,8.65
2023-05-06T19:41:18.782Z,8.10
2023-05-06T19:43:45.556Z,8.40
2023-05-06T19:46:12.436Z,7.68
2023-05-06T19:48:39.063Z,7.85
2023-05-06T19:51:06.545Z,8.00
2023-05-06T19:53:34.053Z,7.60
2023-05-06T19:56:13.383Z,7.32
2023-05-06T19:58:40.260Z,6.90
2023-05-06T20:01:06.852Z,6.47
2023-05-06T20:03:33.633Z,6.85
2023-05-06T20:06:00.292Z,7.55
2023-05-06T20:08:26.974Z,8.55
2023-05-06T20:10:53.564Z,8.07
2023-05-06T20:13:20.445Z,7.38
2023-05-06T20:15:47.539Z,7.05
2023-05-06T20:18:14.904Z,7.35
2023-05-06T20:20:41.462Z,7.57
2023-05-06T20:23:08.010Z,6.45
2023-05-06T20:25:36.854Z,7.03
2023-05-06T20:28:05.418Z,7.05
2023-05-06T20:30:31.989Z,7.28
2023-05-06T20:32:58.886Z,7.97
2023-05-06T20:35:26.147Z,7.03
2023-05-06T20:37:54.476Z,6.80
2023-05-06T20:40:21.168Z,7.15
2023-05-06T20:42:48.331Z,6.95
2023-05-06T20:45:15.050Z,8.30
2023-05-06T20:47:41.741Z,7.35
2023-05-06T20:50:08.631Z,7.70
2023-05-06T20:52:35.153Z,7.60
2023-05-06T20:55:02.096Z,7.97
2023-05-06T20:57:28.718Z,8.25
2023-05-06T20:59:56.142Z,9.48
2023-05-06T21:02:22.907Z,11.02
2023-05-06T21:04:49.495Z,13.45
2023-05-06T21:07:15.993Z,14.45
2023-05-06T21:09:42.529Z,14.25
2023-05-06T21:12:09.221Z,14.45
2023-05-06T21:14:35.764Z,14.25
2023-05-06T21:17:02.368Z,19.70
2023-05-06T21:19:29.178Z,17.13
2023-05-06T21:21:56.709Z,17.98
2023-05-06T21:24:23.287Z,20.33
2023-05-06T21:26:51.268Z,19.35
2023-05-06T21:29:17.815Z,20.58
2023-05-06T21:31:44.346Z,19.17
2023-05-06T21:34:10.913Z,21.17
2023-05-06T21:36:37.562Z,21.48
2023-05-06T21:39:09.689Z,22.00
2023-05-06T21:41:37.036Z,21.40
2023-05-06T21:44:07.760Z,22.77
2023-05-06T21:46:34.997Z,25.45
2023-05-06T21:49:01.677Z,24.85
2023-05-06T21:51:29.430Z,24.23
2023-05-06T21:53:55.966Z,24.17
2023-05-06T21:56:22.765Z,23.67
2023-05-06T21:58:49.353Z,23.75
2023-05-06T22:01:16.281Z,23.95
2023-05-06T22:03:45.248Z,23.58
2023-05-06T22:06:12.608Z,23.73
2023-05-06T22:08:39.858Z,22.95
2023-05-06T22:11:06.828Z,22.27
2023-05-06T22:13:33.386Z,23.75
2023-05-06T22:15:59.948Z,22.88
2023-05-06T22:18:27.946Z,22.45
2023-05-06T22:20:56.577Z,23.35
2023-05-06T22:23:23.984Z,22.08
2023-05-06T22:25:52.064Z,21.05
2023-05-06T22:28:19.369Z,21.13
2023-05-06T22:30:46.315Z,19.90
2023-05-06T22:33:12.882Z,21.60
2023-05-06T22:35:39.423Z,20.48
2023-05-06T22:38:05.961Z,21.27
2023-05-06T22:40:32.490Z,22.23
2023-05-06T22:42:59.000Z,19.27
2023-05-06T22:45:25.714Z,19.73
2023-05-06T22:47:52.280Z,18.33
2023-05-06T22:50:18.858Z,19.65
2023-05-06T22:52:45.506Z,18.85
2023-05-06T22:55:12.407Z,19.52
2023-05-06T22:57:39.189Z,18.33
2023-05-06T23:00:07.516Z,18.20
2023-05-06T23:02:34.256Z,17.33
2023-05-06T23:05:01.023Z,17.73
2023-05-06T23:07:27.515Z,20.13
2023-05-06T23:09:54.098Z,17.88
2023-05-06T23:12:20.681Z,17.75
2023-05-06T23:14:47.251Z,17.75
2023-05-06T23:17:13.932Z,16.52
2023-05-06T23:19:40.646Z,18.08
2023-05-06T23:22:07.227Z,16.65
2023-05-06T23:24:33.895Z,18.15
2023-05-06T23:27:01.111Z,16.45
2023-05-06T23:29:27.639Z,16.30
2023-05-06T23:31:54.358Z,16.73
2023-05-06T23:34:20.889Z,17.70
2023-05-06T23:36:47.406Z,17.00
2023-05-06T23:39:13.944Z,19.27
2023-05-06T23:41:40.635Z,16.40
2023-05-06T23:44:07.139Z,17.33
2023-05-06T23:46:33.670Z,18.85
2023-05-06T23:49:00.627Z,17.25
2023-05-06T23:51:27.178Z,16.10
2023-05-06T23:53:53.730Z,17.55
2023-05-06T23:56:21.708Z,17.10
2023-05-06T23:58:48.338Z,16.05
